Time;durP1;ratioP1;P1;durP2;ratioP2;P2;SDS_P1;SDS_P2;PMS_P1;PMS_P2;Temp;Humidity;BMP_temperature;BMP_pressure;BME280_temperature;BME280_humidity;BME280_pressure;Samples;Min_cycle;Max_cycle;Signal;HPM_P1;HPM_P2
2021/04/11 00:01:08;;;;;;;58.52;37.65;;;;;;;5.99;77.44;100591.77;1787133;80;21262;-76
2021/04/11 00:03:34;;;;;;;61.83;39.70;;;;;;;5.99;77.46;100586.47;1787318;80;21167;-75
2021/04/11 00:06:00;;;;;;;59.85;38.38;;;;;;;6.00;77.51;100581.53;1787524;80;22013;-75
2021/04/11 00:08:29;;;;;;;60.23;38.28;;;;;;;6.03;77.54;100590.52;1786827;80;21128;-76
2021/04/11 00:11:00;;;;;;;61.58;37.85;;;;;;;6.03;77.56;100586.07;1787398;80;21167;-75
2021/04/11 00:13:32;;;;;;;56.00;36.90;;;;;;;6.04;77.57;100592.20;1787408;80;21195;-75
2021/04/11 00:15:59;;;;;;;57.73;36.80;;;;;;;6.04;77.60;100585.59;1787012;80;21207;-75
2021/04/11 00:18:25;;;;;;;55.38;37.42;;;;;;;6.05;77.62;100586.42;1768749;80;21124;-75
2021/04/11 00:20:51;;;;;;;58.75;38.53;;;;;;;6.03;77.66;100586.07;1756305;81;21135;-76
2021/04/11 00:23:19;;;;;;;58.90;39.48;;;;;;;6.03;77.70;100583.91;1756292;81;21148;-75
2021/04/11 00:25:45;;;;;;;60.95;40.45;;;;;;;6.01;77.71;100576.11;1782697;80;21195;-75
2021/04/11 00:28:12;;;;;;;60.85;42.05;;;;;;;5.98;77.72;100571.58;1787497;80;21179;-75
2021/04/11 00:30:39;;;;;;;67.03;41.33;;;;;;;5.96;77.73;100571.70;1787044;80;21203;-75
2021/04/11 00:33:08;;;;;;;59.63;39.78;;;;;;;5.93;77.76;100567.17;1787641;80;21781;-75
2021/04/11 00:35:35;;;;;;;55.83;38.55;;;;;;;5.91;77.78;100565.97;1785306;80;21128;-75
2021/04/11 00:38:01;;;;;;;60.10;37.95;;;;;;;5.88;77.78;100557.46;1748435;82;21259;-76
2021/04/11 00:40:31;;;;;;;61.13;39.13;;;;;;;5.88;77.80;100560.95;1748438;82;21133;-76
2021/04/11 00:43:07;;;;;;;56.35;36.70;;;;;;;5.87;77.83;100553.16;1748396;82;21593;-76
2021/04/11 00:45:56;;;;;;;60.52;38.78;;;;;;;5.90;77.86;100551.56;1775218;80;21164;-76
2021/04/11 00:48:25;;;;;;;65.05;41.23;;;;;;;5.89;77.90;100549.88;1779304;80;21577;-76
2021/04/11 00:51:08;;;;;;;71.00;44.67;;;;;;;5.89;77.96;100544.59;1786910;80;21197;-75
2021/04/11 00:53:34;;;;;;;63.55;41.08;;;;;;;5.89;78.00;100541.95;1786976;80;21600;-76
2021/04/11 00:56:03;;;;;;;65.42;39.60;;;;;;;5.88;78.03;100536.30;1787468;80;21171;-76
2021/04/11 00:58:30;;;;;;;62.73;40.38;;;;;;;5.89;78.08;100543.27;1787551;80;21657;-76
2021/04/11 01:00:56;;;;;;;68.07;39.05;;;;;;;5.91;78.11;100541.34;1752523;80;21132;-75
2021/04/11 01:03:32;;;;;;;63.25;40.45;;;;;;;5.90;78.16;100531.72;1787308;80;21195;-75
2021/04/11 01:05:58;;;;;;;61.60;40.90;;;;;;;5.92;78.21;100524.46;1778280;80;21584;-76
2021/04/11 01:08:27;;;;;;;70.10;43.75;;;;;;;5.93;78.25;100525.66;1787678;80;21127;-76
2021/04/11 01:11:04;;;;;;;67.30;41.90;;;;;;;5.94;78.32;100522.53;1778364;80;21528;-76
2021/04/11 01:13:32;;;;;;;69.45;43.50;;;;;;;5.96;78.34;100525.87;1787656;80;21147;-76
2021/04/11 01:16:00;;;;;;;65.65;41.40;;;;;;;5.98;78.43;100526.58;1751141;80;21473;-76
2021/04/11 01:18:26;;;;;;;64.87;40.48;;;;;;;5.99;78.47;100525.59;1778290;80;21585;-76
2021/04/11 01:20:54;;;;;;;62.70;39.58;;;;;;;5.99;78.48;100518.97;1787700;80;21120;-76
2021/04/11 01:23:44;;;;;;;58.40;37.63;;;;;;;6.01;78.53;100515.23;1787599;80;21179;-76
2021/04/11 01:26:10;;;;;;;66.75;40.85;;;;;;;6.04;78.56;100512.79;1787531;80;21112;-76
2021/04/11 01:28:40;;;;;;;65.70;42.58;;;;;;;6.06;78.57;100512.16;1787619;80;21202;-76
2021/04/11 01:31:07;;;;;;;72.70;41.58;;;;;;;6.08;78.63;100507.57;1786686;80;21163;-75
2021/04/11 01:33:37;;;;;;;62.48;42.03;;;;;;;6.10;78.65;100501.64;1764617;81;21136;-76
2021/04/11 01:36:05;;;;;;;66.75;40.90;;;;;;;6.12;78.68;100491.77;1756711;81;21609;-76
2021/04/11 01:38:31;;;;;;;70.05;43.55;;;;;;;6.14;78.70;100479.20;1764450;81;21187;-76
2021/04/11 01:41:31;;;;;;;70.57;42.75;;;;;;;6.16;78.76;100477.24;1764702;81;21206;-76
2021/04/11 01:43:58;;;;;;;65.28;39.65;;;;;;;6.17;78.77;100477.60;1732356;81;21152;-75
2021/04/11 01:46:25;;;;;;;64.25;41.10;;;;;;;6.17;78.76;100478.92;1757678;81;21151;-75
2021/04/11 01:48:52;;;;;;;74.62;45.38;;;;;;;6.16;78.81;100477.24;1757581;81;21166;-75
2021/04/11 01:51:21;;;;;;;77.92;46.98;;;;;;;6.13;78.84;100470.91;1732563;81;21136;-75
2021/04/11 01:53:47;;;;;;;73.40;46.25;;;;;;;6.11;78.84;100463.61;1764514;81;21273;-75
2021/04/11 01:56:15;;;;;;;87.27;47.80;;;;;;;6.08;78.86;100467.86;1764710;81;21143;-75
2021/04/11 01:58:42;;;;;;;73.50;43.83;;;;;;;6.06;78.87;100463.17;1732520;81;21627;-75
2021/04/11 02:01:25;;;;;;;70.75;43.68;;;;;;;6.04;78.88;100463.81;1764605;81;21158;-75
2021/04/11 02:03:55;;;;;;;81.60;45.28;;;;;;;6.03;78.90;100466.11;1764770;81;21682;-75
2021/04/11 02:06:22;;;;;;;69.53;40.25;;;;;;;6.03;78.92;100456.84;1763998;81;22296;-75
2021/04/11 02:08:50;;;;;;;77.32;42.48;;;;;;;6.02;78.94;100449.86;1764549;81;21157;-75
2021/04/11 02:11:16;;;;;;;73.92;46.00;;;;;;;6.02;78.93;100448.54;1765179;81;21636;-76
2021/04/11 02:13:43;;;;;;;71.15;46.65;;;;;;;5.99;78.92;100447.02;1770016;79;21147;-75
2021/04/11 02:16:13;;;;;;;76.35;47.00;;;;;;;5.99;78.95;100440.41;1770229;81;21219;-75
2021/04/11 02:18:39;;;;;;;;;;;;;;;5.98;78.94;100442.69;1741507;81;21201;-75
2021/04/11 02:21:09;;;;;;;79.58;47.40;;;;;;;5.96;78.94;100437.20;1767686;81;20350;-75
2021/04/11 02:23:36;;;;;;;78.67;46.25;;;;;;;5.95;78.97;100427.09;1763988;81;21175;-76
2021/04/11 02:26:04;;;;;;;77.32;47.60;;;;;;;5.95;78.96;100427.58;1764453;81;21552;-75
2021/04/11 02:28:30;;;;;;;76.02;44.18;;;;;;;5.93;78.97;100425.57;1734637;81;21183;-76
2021/04/11 02:31:18;;;;;;;78.70;45.10;;;;;;;5.95;79.00;100434.19;1764492;81;22097;-75
2021/04/11 02:33:55;;;;;;;76.28;46.60;;;;;;;5.97;78.98;100433.58;1769428;80;21175;-75
2021/04/11 02:36:22;;;;;;;83.35;49.85;;;;;;;5.96;78.97;100427.94;1769289;79;21172;-75
2021/04/11 02:38:50;;;;;;;79.58;47.48;;;;;;;5.94;79.00;100427.25;1739667;81;21157;-75
2021/04/11 02:41:17;;;;;;;77.40;49.13;;;;;;;5.91;78.98;100419.59;1796395;79;21139;-75
2021/04/11 02:43:44;;;;;;;81.17;48.90;;;;;;;5.89;78.97;100417.55;1799362;79;21226;-75
2021/04/11 02:46:11;;;;;;;84.97;49.70;;;;;;;5.89;78.96;100414.42;1799200;79;21481;-75
2021/04/11 02:48:37;;;;;;;76.77;46.13;;;;;;;5.88;78.98;100418.52;1796369;79;21156;-75
2021/04/11 02:51:04;;;;;;;76.53;45.95;;;;;;;5.86;78.95;100405.93;1799512;79;21119;-75
2021/04/11 02:53:33;;;;;;;81.02;47.30;;;;;;;5.85;78.94;100405.54;1799409;79;21714;-75
2021/04/11 02:56:00;;;;;;;83.70;47.45;;;;;;;5.82;78.91;100407.15;1799508;79;21247;-75
2021/04/11 02:58:27;;;;;;;82.50;49.50;;;;;;;5.81;78.94;100403.66;1799449;79;21182;-75
2021/04/11 03:01:07;;;;;;;87.12;49.58;;;;;;;5.81;78.93;100398.85;1799206;79;21127;-75
2021/04/11 03:03:33;;;;;;;83.35;49.80;;;;;;;5.80;78.95;100397.20;1799541;79;21227;-75
2021/04/11 03:06:03;;;;;;;86.47;53.50;;;;;;;5.80;78.92;100397.20;1799360;79;21123;-75
2021/04/11 03:08:33;;;;;;;89.72;52.00;;;;;;;5.77;78.93;100386.91;1799509;79;21185;-75
2021/04/11 03:11:26;;;;;;;82.50;45.83;;;;;;;5.74;78.89;100388.48;1798957;79;21168;-75
2021/04/11 03:13:52;;;;;;;80.72;47.45;;;;;;;5.73;78.90;100378.89;1799270;79;21190;-76
2021/04/11 03:16:19;;;;;;;79.35;46.88;;;;;;;5.76;78.87;100383.41;1797221;79;21175;-76
2021/04/11 03:18:45;;;;;;;84.95;49.13;;;;;;;5.76;78.86;100381.25;1799159;79;21549;-76
2021/04/11 03:21:12;;;;;;;83.90;50.20;;;;;;;5.74;78.82;100380.54;1799362;79;21201;-75
2021/04/11 03:23:38;;;;;;;87.37;51.53;;;;;;;5.76;78.80;100378.61;1799278;79;21123;-76
2021/04/11 03:26:39;;;;;;;89.97;52.60;;;;;;;5.78;78.80;100371.35;1799364;79;21128;-76
2021/04/11 03:29:12;;;;;;;81.30;46.77;;;;;;;5.80;78.77;100369.42;1799327;79;21555;-76
2021/04/11 03:31:42;;;;;;;82.88;47.60;;;;;;;5.81;78.73;100367.09;1798624;79;21143;-76
2021/04/11 03:34:09;;;;;;;79.87;47.43;;;;;;;5.84;78.70;100370.81;1769012;81;21597;-76
2021/04/11 03:36:36;;;;;;;83.82;48.60;;;;;;;5.88;78.67;100358.49;1745067;81;21656;-77
2021/04/11 03:39:03;;;;;;;80.67;49.65;;;;;;;5.92;78.61;100370.95;1767762;80;21155;-76
2021/04/11 03:41:31;;;;;;;74.92;44.88;;;;;;;5.96;78.55;100363.09;1760248;81;21144;-75
2021/04/11 03:43:59;;;;;;;77.08;44.70;;;;;;;5.98;78.52;100351.89;1763617;80;21140;-75
2021/04/11 03:46:34;;;;;;;82.30;47.20;;;;;;;6.06;78.47;100360.42;1726576;82;22162;-75
2021/04/11 03:49:18;;;;;;;85.05;50.50;;;;;;;6.13;78.41;100361.03;1769584;81;21148;-75
2021/04/11 03:51:45;;;;;;;81.63;49.48;;;;;;;6.19;78.29;100361.81;1769443;81;21626;-75
2021/04/11 03:54:27;;;;;;;90.35;49.05;;;;;;;6.19;78.21;100357.84;1769631;81;21148;-75
2021/04/11 03:57:07;;;;;;;84.22;48.38;;;;;;;6.18;78.12;100352.19;1769516;81;21135;-75
2021/04/11 03:59:44;;;;;;;76.95;44.85;;;;;;;6.19;78.06;100352.55;1769739;81;21790;-75
2021/04/11 04:02:11;;;;;;;70.42;42.70;;;;;;;6.18;77.98;100358.81;1764610;81;21171;-75
2021/04/11 04:04:38;;;;;;;75.30;45.48;;;;;;;6.21;77.91;100354.55;1769825;81;21116;-75
2021/04/11 04:07:10;;;;;;;78.05;44.80;;;;;;;6.24;77.81;100347.64;1769600;81;21141;-75
2021/04/11 04:09:37;;;;;;;85.40;48.33;;;;;;;6.28;77.72;100346.38;1769093;81;21172;-75
2021/04/11 04:12:20;;;;;;;78.57;47.08;;;;;;;6.33;77.62;100338.81;1765601;81;21554;-75
2021/04/11 04:15:04;;;;;;;80.12;46.08;;;;;;;6.35;77.54;100334.72;1759447;81;21171;-75
2021/04/11 04:18:10;;;;;;;80.55;47.13;;;;;;;6.39;77.39;100339.59;1729394;83;21168;-75
2021/04/11 04:20:51;;;;;;;76.20;45.85;;;;;;;6.42;77.29;100330.02;1742329;82;21202;-75
2021/04/11 04:23:39;;;;;;;72.58;44.88;;;;;;;6.46;77.13;100322.14;1741397;81;21124;-75
2021/04/11 04:26:40;;;;;;;75.83;44.58;;;;;;;6.50;77.03;100324.84;1729331;82;21211;-75
2021/04/11 04:29:33;;;;;;;81.80;48.17;;;;;;;6.56;76.90;100326.06;1742289;82;21196;-75
2021/04/11 04:32:40;;;;;;;73.12;42.88;;;;;;;6.59;76.74;100324.92;1759345;81;21139;-75
2021/04/11 04:35:37;;;;;;;81.67;46.88;;;;;;;6.64;76.60;100318.71;1755610;81;21159;-75
2021/04/11 04:38:14;;;;;;;80.57;46.00;;;;;;;6.66;76.39;100308.78;1756727;81;21442;-75
2021/04/11 04:41:07;;;;;;;80.85;44.08;;;;;;;6.66;76.21;100326.02;1743039;82;21207;-75
2021/04/11 04:43:48;;;;;;;73.35;44.73;;;;;;;6.69;76.10;100317.77;1753563;81;21947;-75
2021/04/11 04:46:41;;;;;;;81.20;46.23;;;;;;;6.77;75.98;100319.19;1744742;81;21171;-74
2021/04/11 04:49:16;;;;;;;82.82;46.20;;;;;;;6.76;75.83;100325.47;1753894;81;21565;-74
2021/04/11 04:52:02;;;;;;;77.70;46.50;;;;;;;6.75;75.68;100326.47;1751018;81;21161;-74
2021/04/11 04:54:42;;;;;;;83.58;48.30;;;;;;;6.76;75.54;100330.77;1751377;81;21254;-74
2021/04/11 04:57:18;;;;;;;74.58;43.92;;;;;;;6.78;75.43;100327.50;1753948;81;21128;-74
2021/04/11 05:00:01;;;;;;;72.60;43.98;;;;;;;6.83;75.32;100327.88;1750955;81;21164;-75
2021/04/11 05:02:32;;;;;;;66.15;39.92;;;;;;;6.95;75.21;100333.33;1753691;81;21214;-75
2021/04/11 05:04:59;;;;;;;69.53;41.30;;;;;;;6.95;75.04;100328.03;1753600;81;21161;-75
2021/04/11 05:07:27;;;;;;;76.05;44.00;;;;;;;7.02;74.96;100326.45;1751089;81;21867;-75
2021/04/11 05:10:08;;;;;;;79.12;45.73;;;;;;;7.15;74.83;100329.57;1725966;81;21132;-75
2021/04/11 05:12:57;;;;;;;69.65;42.03;;;;;;;7.52;74.80;100330.30;1753954;81;21141;-75
2021/04/11 05:15:28;;;;;;;79.95;46.25;;;;;;;8.46;74.66;100326.51;1754163;81;21143;-75
2021/04/11 05:18:05;;;;;;;76.33;45.48;;;;;;;8.64;74.03;100331.75;1748983;81;21169;-75
2021/04/11 05:20:35;;;;;;;72.50;42.23;;;;;;;9.10;73.70;100333.09;1715467;82;21195;-76
2021/04/11 05:23:22;;;;;;;70.62;43.50;;;;;;;9.38;72.87;100322.02;1738798;81;21151;-76
2021/04/11 05:26:23;;;;;;;62.95;40.88;;;;;;;9.42;72.41;100326.02;1732769;82;21166;-76
2021/04/11 05:32:09;;;;;;;62.73;38.42;;;;;;;9.37;72.23;100333.64;1649603;87;21643;-75
2021/04/11 05:34:35;;;;;;;60.65;39.35;;;;;;;9.50;72.04;100337.14;1588081;87;21299;-75
2021/04/11 05:37:31;;;;;;;65.32;39.05;;;;;;;9.58;71.87;100329.18;1648817;87;21203;-75
2021/04/11 05:40:23;;;;;;;67.10;39.90;;;;;;;9.81;71.70;100322.70;1648784;87;21180;-75
2021/04/11 05:43:27;;;;;;;65.40;41.40;;;;;;;9.95;71.35;100325.54;1648737;87;21224;-76
2021/04/11 05:46:17;;;;;;;60.45;37.85;;;;;;;10.20;71.02;100323.70;1629139;86;21183;-75
2021/04/11 05:48:52;;;;;;;63.83;38.55;;;;;;;10.31;70.60;100322.00;1649132;87;22167;-76
2021/04/11 05:51:30;;;;;;;55.15;34.70;;;;;;;10.40;70.25;100319.66;1631226;87;21211;-76
2021/04/11 05:54:18;;;;;;;60.17;35.13;;;;;;;10.64;69.94;100315.24;1628761;87;21869;-76
2021/04/11 05:56:50;;;;;;;57.58;34.78;;;;;;;10.74;69.43;100316.70;1648760;86;21167;-76
2021/04/11 05:59:24;;;;;;;57.65;36.58;;;;;;;10.91;68.95;100317.45;1648901;87;21202;-76
2021/04/11 06:01:54;;;;;;;53.73;34.48;;;;;;;11.05;68.58;100321.25;1648761;87;21208;-76
2021/04/11 06:04:35;;;;;;;53.30;32.23;;;;;;;11.35;68.22;100317.72;1654029;86;21677;-76
2021/04/11 06:07:21;;;;;;;58.00;34.67;;;;;;;11.56;67.80;100317.08;1636351;87;21175;-76
2021/04/11 06:09:50;;;;;;;55.00;33.98;;;;;;;11.70;67.28;100315.80;1607674;88;21234;-77
2021/04/11 06:12:24;;;;;;;50.50;31.10;;;;;;;11.74;66.64;100321.65;1663240;86;21606;-77
2021/04/11 06:15:21;;;;;;;48.58;29.90;;;;;;;11.90;66.28;100314.82;1663013;86;21236;-77
2021/04/11 06:17:47;;;;;;;47.43;29.65;;;;;;;11.92;65.81;100306.97;1682948;84;21162;-77
2021/04/11 06:20:13;;;;;;;49.65;29.12;;;;;;;11.85;65.26;100313.21;1681980;85;21171;-77
2021/04/11 06:22:49;;;;;;;42.85;26.90;;;;;;;11.91;64.73;100307.13;1682193;85;21631;-77
2021/04/11 06:25:30;;;;;;;43.65;29.45;;;;;;;12.12;64.39;100307.77;1682019;84;21162;-77
2021/04/11 06:28:42;;;;;;;46.90;28.83;;;;;;;12.36;64.00;100308.36;1681928;84;21198;-77
2021/04/11 06:31:11;;;;;;;46.50;28.42;;;;;;;12.35;63.50;100302.67;1626296;87;21182;-77
2021/04/11 06:33:40;;;;;;;43.85;27.48;;;;;;;12.37;62.95;100299.33;1663844;85;21162;-77
2021/04/11 06:36:11;;;;;;;47.60;26.20;;;;;;;12.49;62.66;100292.48;1640055;85;21206;-77
2021/04/11 06:38:41;;;;;;;46.33;29.35;;;;;;;12.68;62.32;100292.95;1669584;84;21195;-77
2021/04/11 06:41:27;;;;;;;;;;;;;;;12.74;61.83;100289.52;1704926;83;21160;-78
2021/04/11 06:44:25;;;;;;;50.45;28.83;;;;;;;12.73;61.25;100287.87;1704006;84;20249;-78
2021/04/11 06:47:31;;;;;;;56.73;31.97;;;;;;;12.71;60.75;100285.88;1669855;85;21189;-78
2021/04/11 06:50:16;;;;;;;42.48;24.37;;;;;;;12.71;60.13;100279.19;1669715;85;21175;-78
2021/04/11 06:53:06;;;;;;;39.85;24.07;;;;;;;12.78;59.70;100281.44;1669922;85;21179;-78
2021/04/11 06:56:03;;;;;;;36.08;23.50;;;;;;;12.91;59.45;100288.31;1669905;85;21328;-78
2021/04/11 06:58:57;;;;;;;36.23;23.95;;;;;;;13.14;59.26;100286.34;1669771;85;21631;-77
2021/04/11 07:02:06;;;;;;;36.05;23.77;;;;;;;13.22;58.96;100275.52;1651538;84;21651;-77
2021/04/11 07:04:49;;;;;;;41.75;21.82;;;;;;;13.39;58.77;100268.89;1567355;87;21237;-77
2021/04/11 07:07:44;;;;;;;30.82;21.07;;;;;;;13.59;58.26;100276.27;1652309;84;21206;-77
2021/04/11 07:10:27;;;;;;;31.80;21.02;;;;;;;13.56;57.67;100268.63;1701306;83;22121;-78
2021/04/11 07:13:34;;;;;;;45.78;24.85;;;;;;;13.50;57.20;100273.75;1652919;85;21183;-78
2021/04/11 07:16:31;;;;;;;37.80;21.95;;;;;;;13.71;57.06;100273.41;1645121;86;21127;-78
2021/04/11 07:19:40;;;;;;;40.25;22.30;;;;;;;13.71;56.40;100276.09;1697891;84;21739;-78
2021/04/11 07:22:47;;;;;;;35.03;20.30;;;;;;;13.72;56.10;100279.09;1698088;84;21187;-78
2021/04/11 07:25:41;;;;;;;28.83;18.48;;;;;;;13.99;55.98;100278.28;1666066;83;21221;-78
2021/04/11 07:28:38;;;;;;;27.87;18.20;;;;;;;14.31;55.81;100284.39;1649004;84;21175;-78
2021/04/11 07:31:27;;;;;;;27.80;17.07;;;;;;;14.49;55.53;100280.69;1638110;85;21152;-78
2021/04/11 07:34:31;;;;;;;29.45;16.12;;;;;;;14.52;55.10;100283.51;1705818;82;21158;-78
2021/04/11 07:37:23;;;;;;;28.32;16.73;;;;;;;14.69;54.97;100275.44;1707754;84;21521;-78
2021/04/11 07:40:14;;;;;;;29.90;16.37;;;;;;;14.58;54.39;100276.50;1706218;84;21250;-78
2021/04/11 07:42:58;;;;;;;23.57;14.18;;;;;;;14.58;54.21;100277.84;1641482;85;21173;-78
2021/04/11 07:46:06;;;;;;;31.77;14.47;;;;;;;14.65;53.99;100282.23;1643743;84;21194;-78
2021/04/11 07:49:14;;;;;;;24.23;13.72;;;;;;;14.61;53.73;100282.81;1656961;85;21621;-79
2021/04/11 07:51:55;;;;;;;32.42;19.77;;;;;;;14.55;53.40;100274.22;1669719;85;21621;-79
2021/04/11 07:55:04;;;;;;;42.03;37.15;;;;;;;14.29;53.28;100285.08;1669349;86;22172;-78
2021/04/11 07:58:04;;;;;;;30.10;19.52;;;;;;;14.23;53.21;100274.31;1620031;86;25867;-78
2021/04/11 08:01:00;;;;;;;23.60;14.33;;;;;;;14.22;53.13;100269.45;1669045;84;21613;-77
2021/04/11 08:03:46;;;;;;;17.98;12.20;;;;;;;14.02;52.71;100264.48;1672044;84;21145;-78
2021/04/11 08:06:20;;;;;;;18.20;12.28;;;;;;;13.93;52.48;100270.48;1670125;84;21140;-78
2021/04/11 08:08:59;;;;;;;20.92;11.30;;;;;;;13.98;52.29;100260.52;1697952;83;21203;-78
2021/04/11 08:11:50;;;;;;;24.60;12.53;;;;;;;14.08;52.16;100265.02;1669604;83;21600;-78
2021/04/11 08:14:43;;;;;;;24.87;12.13;;;;;;;14.15;52.02;100260.53;1703880;84;21199;-78
2021/04/11 08:17:38;;;;;;;21.68;11.18;;;;;;;14.35;52.03;100257.52;1703717;84;21624;-78
2021/04/11 08:20:33;;;;;;;22.60;12.88;;;;;;;14.47;51.82;100255.08;1669676;85;21151;-78
2021/04/11 08:23:07;;;;;;;26.77;13.38;;;;;;;14.43;51.36;100249.28;1640162;87;21279;-78
2021/04/11 08:25:39;;;;;;;34.63;22.85;;;;;;;14.50;51.06;100251.49;1656887;85;21514;-77
2021/04/11 08:28:26;;;;;;;22.90;11.53;;;;;;;14.58;50.83;100246.98;1734131;82;21218;-77
2021/04/11 08:31:16;;;;;;;22.50;13.93;;;;;;;14.74;50.75;100250.69;1738426;82;21247;-77
2021/04/11 08:34:18;;;;;;;14.87;10.13;;;;;;;14.98;50.67;100246.12;1741958;82;21131;-78
2021/04/11 08:37:07;;;;;;;19.27;11.55;;;;;;;15.08;50.24;100234.98;1742209;82;21284;-78
2021/04/11 08:40:14;;;;;;;17.17;11.05;;;;;;;15.38;50.30;100237.61;1742331;82;21576;-79
2021/04/11 08:42:58;;;;;;;19.05;9.45;;;;;;;15.58;50.10;100234.48;1742179;82;21174;-78
2021/04/11 08:45:39;;;;;;;107.50;51.77;;;;;;;15.71;49.51;100229.09;1742152;82;21753;-78
2021/04/11 08:48:38;;;;;;;160.75;82.37;;;;;;;15.81;49.20;100235.39;1742404;82;21144;-79
2021/04/11 08:51:15;;;;;;;125.42;66.92;;;;;;;16.10;49.25;100224.20;1642539;87;21222;-79
2021/04/11 08:54:14;;;;;;;92.33;47.55;;;;;;;16.40;49.33;100229.39;1611253;87;21243;-79
2021/04/11 08:56:59;;;;;;;76.65;41.95;;;;;;;16.52;48.88;100222.00;1636703;87;21247;-79
2021/04/11 08:59:59;;;;;;;43.02;24.10;;;;;;;16.43;48.07;100227.61;1631346;87;21167;-78
2021/04/11 09:02:34;;;;;;;;;;;;;;;16.63;47.97;100224.07;1654102;86;21205;-79
2021/04/11 09:05:49;;;;;;;14.00;7.50;;;;;;;16.84;47.72;100219.21;1634697;87;21307;-79
2021/04/11 09:08:34;;;;;;;13.98;8.33;;;;;;;16.92;47.17;100215.45;1606878;89;21176;-79
2021/04/11 09:11:27;;;;;;;51.70;23.18;;;;;;;17.09;46.58;100217.94;1607008;89;21171;-79
2021/04/11 09:14:48;;;;;;;92.33;41.95;;;;;;;17.06;45.75;100209.45;1606866;89;21611;-79
2021/04/11 09:17:52;;;;;;;23.25;12.05;;;;;;;17.05;45.23;100214.02;1598128;89;21230;-79
2021/04/11 09:20:32;;;;;;;31.82;27.02;;;;;;;17.25;45.08;100197.19;1607382;89;21327;-79
2021/04/11 09:23:07;;;;;;;17.20;8.83;;;;;;;17.22;44.46;100203.02;1606729;89;21196;-79
2021/04/11 09:25:34;;;;;;;50.03;33.90;;;;;;;17.33;44.19;100206.37;1608263;88;21191;-79
2021/04/11 09:28:47;;;;;;;224.22;144.50;;;;;;;17.38;43.99;100187.65;1611496;88;21181;-79
2021/04/11 09:31:53;;;;;;;27.73;15.20;;;;;;;17.55;43.97;100185.77;1604645;88;21228;-79
2021/04/11 09:34:28;;;;;;;8.80;5.60;;;;;;;17.71;43.72;100183.37;1611279;89;22114;-79
2021/04/11 09:37:20;;;;;;;13.75;5.78;;;;;;;17.71;43.22;100182.54;1568526;88;21114;-79
2021/04/11 09:40:14;;;;;;;8.23;5.05;;;;;;;17.67;42.52;100187.55;1611101;88;21161;-79
2021/04/11 09:42:48;;;;;;;6.95;4.53;;;;;;;17.77;42.38;100180.30;1611477;89;21610;-79
2021/04/11 09:45:46;;;;;;;10.70;6.20;;;;;;;17.82;41.89;100183.16;1611417;87;21526;-79
2021/04/11 09:48:24;;;;;;;14.30;7.90;;;;;;;17.85;41.75;100177.33;1611336;88;22250;-79
2021/04/11 09:51:13;;;;;;;12.93;6.85;;;;;;;17.87;41.33;100169.84;1639353;87;21202;-79
2021/04/11 09:54:07;;;;;;;10.75;4.55;;;;;;;17.91;41.15;100164.28;1645508;87;21203;-79
2021/04/11 09:57:03;;;;;;;15.20;7.97;;;;;;;18.03;40.25;100165.20;1645247;87;21142;-79
2021/04/11 09:59:57;;;;;;;36.23;24.90;;;;;;;18.05;40.08;100166.34;1645579;87;21186;-79
2021/04/11 10:02:49;;;;;;;8.05;4.47;;;;;;;18.05;39.85;100165.80;1645572;87;21166;-79
2021/04/11 10:05:21;;;;;;;12.00;7.83;;;;;;;18.14;39.89;100167.69;1644288;87;21580;-79
2021/04/11 10:08:19;;;;;;;12.47;5.25;;;;;;;18.09;39.61;100161.60;1645545;87;21230;-79
2021/04/11 10:11:30;;;;;;;10.45;5.90;;;;;;;18.02;39.19;100158.15;1641247;87;21198;-79
2021/04/11 10:14:26;;;;;;;11.43;5.62;;;;;;;18.03;38.98;100166.55;1645525;87;21154;-79
2021/04/11 10:17:08;;;;;;;21.68;16.93;;;;;;;17.93;38.48;100164.38;1672982;83;21222;-79
2021/04/11 10:20:01;;;;;;;10.58;5.67;;;;;;;18.06;38.64;100161.23;1646009;85;21155;-79
2021/04/11 10:22:49;;;;;;;13.18;5.08;;;;;;;18.00;38.43;100156.21;1630479;86;21161;-79
2021/04/11 10:25:35;;;;;;;12.25;5.75;;;;;;;18.12;38.51;100151.70;1644497;86;21163;-79
2021/04/11 10:28:47;;;;;;;19.32;11.93;;;;;;;17.90;37.91;100145.11;1618562;85;21175;-80
2021/04/11 10:31:43;;;;;;;12.05;4.90;;;;;;;17.77;37.85;100144.70;1682961;84;21248;-79
2021/04/11 10:34:24;;;;;;;7.97;4.85;;;;;;;17.97;37.82;100147.22;1642542;85;21296;-79
2021/04/11 10:36:54;;;;;;;10.85;6.75;;;;;;;17.83;37.58;100137.61;1677305;85;21177;-79
2021/04/11 10:39:59;;;;;;;11.03;5.92;;;;;;;17.89;37.57;100135.36;1655009;85;21615;-79
2021/04/11 10:43:02;;;;;;;15.45;7.12;;;;;;;17.94;37.36;100132.83;1674537;85;21188;-79
2021/04/11 10:45:50;;;;;;;14.98;9.43;;;;;;;18.10;37.71;100132.22;1679119;84;21202;-79
2021/04/11 10:48:48;;;;;;;9.10;4.50;;;;;;;18.37;37.88;100127.31;1655976;86;21628;-79
2021/04/11 10:51:41;;;;;;;6.25;3.65;;;;;;;18.25;37.36;100142.13;1656702;84;21219;-79
2021/04/11 10:54:37;;;;;;;8.40;4.33;;;;;;;18.15;37.31;100128.34;1680145;85;21199;-79
2021/04/11 10:57:31;;;;;;;9.10;5.00;;;;;;;18.15;37.15;100139.13;1676717;83;21164;-79
2021/04/11 11:00:43;;;;;;;6.47;3.98;;;;;;;18.37;37.33;100143.00;1671766;85;21210;-78
2021/04/11 11:03:49;;;;;;;8.38;5.53;;;;;;;18.34;37.39;100139.41;1673682;85;21236;-79
2021/04/11 11:06:54;;;;;;;10.68;4.17;;;;;;;18.37;37.48;100140.30;1681597;84;21115;-79
2021/04/11 11:09:47;;;;;;;11.18;4.55;;;;;;;18.29;37.27;100130.34;1745328;82;21159;-79
2021/04/11 11:12:45;;;;;;;11.10;4.12;;;;;;;18.22;37.19;100134.48;1745701;81;21140;-79
2021/04/11 11:15:53;;;;;;;7.00;3.65;;;;;;;18.14;36.87;100146.92;1745266;82;21216;-79
2021/04/11 11:19:05;;;;;;;9.60;3.87;;;;;;;18.12;36.70;100138.76;1708343;83;21173;-79
2021/04/11 11:21:46;;;;;;;9.45;5.72;;;;;;;18.14;36.83;100134.77;1693521;84;21573;-79
2021/04/11 11:25:03;;;;;;;7.95;4.33;;;;;;;18.23;37.08;100130.70;1693125;84;21563;-79
2021/04/11 11:28:24;;;;;;;9.28;4.78;;;;;;;18.30;37.21;100133.33;1693228;84;21158;-79
2021/04/11 11:31:27;;;;;;;11.08;4.15;;;;;;;18.38;37.52;100134.38;1693663;84;21203;-79
2021/04/11 11:34:25;;;;;;;5.80;3.45;;;;;;;18.43;37.63;100125.08;1693631;84;21618;-79
2021/04/11 11:37:03;;;;;;;7.92;3.42;;;;;;;18.37;37.74;100118.69;1693537;84;21143;-78
2021/04/11 11:39:43;;;;;;;7.22;4.30;;;;;;;18.25;37.42;100121.05;1693466;84;21123;-79
2021/04/11 11:42:36;;;;;;;8.35;3.75;;;;;;;18.26;37.42;100117.30;1693703;84;21199;-79
2021/04/11 11:45:19;;;;;;;11.15;4.83;;;;;;;18.33;37.39;100109.39;1693091;84;22064;-79
2021/04/11 11:48:14;;;;;;;8.08;4.83;;;;;;;18.36;37.42;100110.84;1693547;84;21211;-79
2021/04/11 11:51:03;;;;;;;6.03;4.05;;;;;;;18.27;37.39;100115.70;1693766;84;21178;-78
2021/04/11 11:53:34;;;;;;;11.38;5.78;;;;;;;18.29;37.31;100119.03;1693467;84;21564;-79
2021/04/11 11:56:17;;;;;;;9.80;4.45;;;;;;;18.24;37.19;100111.29;1693742;84;21154;-79
2021/04/11 11:59:03;;;;;;;10.48;4.05;;;;;;;18.37;37.23;100107.89;1693625;84;22064;-79
2021/04/11 12:01:51;;;;;;;11.75;4.45;;;;;;;18.48;37.46;100109.83;1693511;84;21159;-79
2021/04/11 12:04:54;;;;;;;8.68;4.40;;;;;;;18.65;37.63;100107.34;1693714;84;22222;-79
2021/04/11 12:07:54;;;;;;;6.55;3.58;;;;;;;18.74;37.57;100105.14;1697501;82;21139;-78
2021/04/11 12:10:38;;;;;;;7.12;4.17;;;;;;;18.75;37.56;100102.20;1766601;81;21100;-78
2021/04/11 12:13:33;;;;;;;5.90;3.30;;;;;;;18.78;37.54;100104.98;1766489;81;21971;-78
2021/04/11 12:16:17;;;;;;;9.38;3.27;;;;;;;18.81;37.55;100100.47;1766483;81;21143;-78
2021/04/11 12:19:08;;;;;;;4.95;3.15;;;;;;;18.84;37.51;100098.66;1766125;80;21127;-79
2021/04/11 12:22:04;;;;;;;6.80;3.37;;;;;;;18.90;37.59;100086.39;1766425;80;21203;-79
2021/04/11 12:24:41;;;;;;;10.30;4.65;;;;;;;18.96;37.48;100084.66;1766490;81;21152;-78
2021/04/11 12:27:09;;;;;;;5.50;3.40;;;;;;;18.92;37.41;100084.81;1765779;80;21391;-78
2021/04/11 12:29:42;;;;;;;8.38;4.28;;;;;;;19.01;37.32;100087.47;1766288;81;38320;-78